createdAt,value
2018-03-02T00:01:37.520Z,30.70
2018-03-02T00:04:05.687Z,31.98
2018-03-02T00:06:34.563Z,29.00
2018-03-02T00:09:03.463Z,34.70
2018-03-02T00:11:31.583Z,28.80
2018-03-02T00:14:00.226Z,26.73
2018-03-02T00:16:29.132Z,26.58
2018-03-02T00:18:57.251Z,30.83
2018-03-02T00:21:25.383Z,29.98
2018-03-02T00:23:53.499Z,26.83
2018-03-02T00:26:21.611Z,29.90
2018-03-02T00:28:49.754Z,30.75
2018-03-02T00:31:18.761Z,27.08
2018-03-02T00:33:46.881Z,30.98
2018-03-02T00:36:15.007Z,28.60
2018-03-02T00:38:43.914Z,26.40
2018-03-02T00:41:12.058Z,30.25
2018-03-02T00:43:40.953Z,29.48
2018-03-02T00:46:09.842Z,28.40
2018-03-02T00:48:38.845Z,28.05
2018-03-02T00:51:07.026Z,29.73
2018-03-02T00:53:35.147Z,28.62
2018-03-02T00:56:03.280Z,30.10
2018-03-02T00:58:31.431Z,28.05
2018-03-02T01:00:59.564Z,29.65
2018-03-02T01:03:27.775Z,30.33
2018-03-02T01:05:55.914Z,28.30
2018-03-02T01:08:24.055Z,26.60
2018-03-02T01:10:52.182Z,27.45
2018-03-02T01:13:21.073Z,28.02
2018-03-02T01:15:49.970Z,29.87
2018-03-02T01:18:18.868Z,29.45
2018-03-02T01:20:47.038Z,28.02
2018-03-02T01:23:15.912Z,28.02
2018-03-02T01:25:44.784Z,29.55
2018-03-02T01:28:12.910Z,27.40
2018-03-02T01:30:41.057Z,25.55
2018-03-02T01:33:09.954Z,26.95
2018-03-02T01:35:38.089Z,26.37
2018-03-02T01:38:06.208Z,26.52
2018-03-02T01:40:34.321Z,29.63
2018-03-02T01:43:02.451Z,28.00
2018-03-02T01:45:30.574Z,34.15
2018-03-02T01:47:58.704Z,28.60
2018-03-02T01:50:26.846Z,28.42
2018-03-02T01:52:55.928Z,27.05
2018-03-02T01:55:24.041Z,30.58
2018-03-02T01:57:52.191Z,29.73
2018-03-02T02:00:20.376Z,33.80
2018-03-02T02:02:48.508Z,30.33
2018-03-02T02:05:16.624Z,32.42
2018-03-02T02:07:44.779Z,30.80
2018-03-02T02:10:12.927Z,30.15
2018-03-02T02:12:41.067Z,29.02
2018-03-02T02:15:09.191Z,33.42
2018-03-02T02:17:38.099Z,29.45
2018-03-02T02:20:06.221Z,29.98
2018-03-02T02:22:34.343Z,30.33
2018-03-02T02:25:02.472Z,32.97
2018-03-02T02:27:30.588Z,31.40
2018-03-02T02:29:58.727Z,33.03
2018-03-02T02:32:26.856Z,32.15
2018-03-02T02:34:55.010Z,33.88
2018-03-02T02:37:23.176Z,31.87
2018-03-02T02:39:51.278Z,30.33
2018-03-02T02:42:19.407Z,33.72
2018-03-02T02:44:48.311Z,28.45
2018-03-02T02:47:17.167Z,32.53
2018-03-02T02:49:45.376Z,33.60
2018-03-02T02:52:13.491Z,32.05
2018-03-02T02:54:41.711Z,31.12
2018-03-02T02:57:09.843Z,34.53
2018-03-02T02:59:39.487Z,32.53
2018-03-02T03:02:07.628Z,33.08
2018-03-02T03:04:35.736Z,32.47
2018-03-02T03:07:03.857Z,33.75
2018-03-02T03:09:31.972Z,33.60
2018-03-02T03:12:00.875Z,31.85
2018-03-02T03:14:29.049Z,30.05
2018-03-02T03:16:57.215Z,34.58
2018-03-02T03:19:25.383Z,38.58
2018-03-02T03:21:54.291Z,31.92
2018-03-02T03:24:22.453Z,32.42
2018-03-02T03:26:50.624Z,31.02
2018-03-02T03:29:19.615Z,33.40
2018-03-02T03:31:47.790Z,35.30
2018-03-02T03:34:15.907Z,34.13
2018-03-02T03:36:44.134Z,32.63
2018-03-02T03:39:13.127Z,31.58
2018-03-02T03:41:41.276Z,30.60
2018-03-02T03:44:10.155Z,32.20
2018-03-02T03:46:38.287Z,34.22
2018-03-02T03:49:06.401Z,34.90
2018-03-02T03:51:34.636Z,31.60
2018-03-02T03:54:02.742Z,35.38
2018-03-02T03:56:30.951Z,31.55
2018-03-02T03:58:59.074Z,34.58
2018-03-02T04:01:27.210Z,34.95
2018-03-02T04:03:55.353Z,37.55
2018-03-02T04:06:24.253Z,37.13
2018-03-02T04:08:53.135Z,35.72
2018-03-02T04:11:22.039Z,31.95
2018-03-02T04:13:50.187Z,34.05
2018-03-02T04:16:19.073Z,31.92
2018-03-02T04:18:47.200Z,33.65
2018-03-02T04:21:15.377Z,33.00
2018-03-02T04:23:43.521Z,33.95
2018-03-02T04:26:11.686Z,35.63
2018-03-02T04:28:39.812Z,38.17
2018-03-02T04:31:08.033Z,38.70
2018-03-02T04:33:36.166Z,34.75
2018-03-02T04:36:04.379Z,32.20
2018-03-02T04:38:32.508Z,34.58
2018-03-02T04:41:00.665Z,34.45
2018-03-02T04:43:28.917Z,36.78
2018-03-02T04:45:57.018Z,37.92
2018-03-02T04:48:25.242Z,34.83
2018-03-02T04:50:53.382Z,37.42
2018-03-02T04:53:21.506Z,36.33
2018-03-02T04:55:49.644Z,41.97
2018-03-02T04:58:18.555Z,35.22
2018-03-02T05:00:46.722Z,37.13
2018-03-02T05:03:14.930Z,37.38
2018-03-02T05:05:43.028Z,42.85
2018-03-02T05:08:11.155Z,35.78
2018-03-02T05:10:39.292Z,38.90
2018-03-02T05:13:08.262Z,36.83
2018-03-02T05:15:36.394Z,38.00
2018-03-02T05:18:04.520Z,37.03
2018-03-02T05:20:33.445Z,42.85
2018-03-02T05:23:01.576Z,37.05
2018-03-02T05:25:29.782Z,40.17
2018-03-02T05:27:57.960Z,40.12
2018-03-02T05:30:26.134Z,37.30
2018-03-02T05:32:54.276Z,38.50
2018-03-02T05:35:22.472Z,36.75
2018-03-02T05:37:50.632Z,38.63
2018-03-02T05:40:19.541Z,41.33
2018-03-02T05:42:48.430Z,36.25
2018-03-02T05:45:16.610Z,34.67
2018-03-02T05:47:44.727Z,36.97
2018-03-02T05:50:12.856Z,35.90
2018-03-02T05:52:41.014Z,35.63
2018-03-02T05:55:09.140Z,34.47
2018-03-02T05:57:37.269Z,39.53
2018-03-02T06:00:05.452Z,35.17
2018-03-02T06:02:35.038Z,36.20
2018-03-02T06:05:03.250Z,40.15
2018-03-02T06:07:31.383Z,37.60
2018-03-02T06:10:00.284Z,39.42
2018-03-02T06:12:28.428Z,36.40
2018-03-02T06:14:56.540Z,40.53
2018-03-02T06:17:24.656Z,39.95
2018-03-02T06:19:52.793Z,34.20
2018-03-02T06:22:20.936Z,39.35
2018-03-02T06:24:49.957Z,36.03
2018-03-02T06:27:18.073Z,39.15
2018-03-02T06:29:46.224Z,40.15
2018-03-02T06:32:14.345Z,38.92
2018-03-02T06:34:43.236Z,42.42
2018-03-02T06:37:11.356Z,39.10
2018-03-02T06:39:39.480Z,41.83
2018-03-02T06:42:08.371Z,41.85
2018-03-02T06:44:37.351Z,41.67
2018-03-02T06:47:05.536Z,42.22
2018-03-02T06:49:33.695Z,36.53
2018-03-02T06:52:02.628Z,38.35
2018-03-02T06:54:30.738Z,41.75
2018-03-02T06:56:58.900Z,39.92
2018-03-02T06:59:27.195Z,43.42
2018-03-02T07:01:55.318Z,39.85
2018-03-02T07:04:23.455Z,40.85
2018-03-02T07:06:52.373Z,40.58
2018-03-02T07:09:20.561Z,38.67
2018-03-02T07:11:48.731Z,41.45
2018-03-02T07:14:16.872Z,40.12
2018-03-02T07:16:45.769Z,39.95
2018-03-02T07:19:14.655Z,41.95
2018-03-02T07:21:42.795Z,41.65
2018-03-02T07:24:10.960Z,42.88
2018-03-02T07:26:39.051Z,43.35
2018-03-02T07:29:08.077Z,43.03
2018-03-02T07:31:36.202Z,43.47
2018-03-02T07:34:04.429Z,40.78
2018-03-02T07:36:32.546Z,42.33
2018-03-02T07:39:00.760Z,42.10
2018-03-02T07:41:28.887Z,44.03
2018-03-02T07:43:57.035Z,44.03
2018-03-02T07:46:25.147Z,44.58
2018-03-02T07:48:54.035Z,42.65
2018-03-02T07:51:22.943Z,45.92
2018-03-02T07:53:51.837Z,39.55
2018-03-02T07:56:20.736Z,42.62
2018-03-02T07:58:48.899Z,44.95
2018-03-02T08:01:17.798Z,40.35
2018-03-02T08:03:45.939Z,41.50
2018-03-02T08:06:14.145Z,46.88
2018-03-02T08:08:42.265Z,40.53
2018-03-02T08:11:10.422Z,41.40
2018-03-02T08:13:38.554Z,38.60
2018-03-02T08:16:06.678Z,36.95
2018-03-02T08:18:34.800Z,41.45
2018-03-02T08:21:02.958Z,41.22
2018-03-02T08:23:31.900Z,39.75
2018-03-02T08:26:00.036Z,38.17
2018-03-02T08:28:28.916Z,41.72
2018-03-02T08:30:57.818Z,46.90
2018-03-02T08:33:25.992Z,47.25
2018-03-02T08:35:54.113Z,42.75
2018-03-02T08:38:22.240Z,41.95
2018-03-02T08:40:50.416Z,42.00
2018-03-02T08:43:18.556Z,42.90
2018-03-02T08:45:46.732Z,40.55
2018-03-02T08:48:14.840Z,44.30
2018-03-02T08:50:42.996Z,42.78
2018-03-02T08:53:11.172Z,45.53
2018-03-02T08:55:39.332Z,43.40
2018-03-02T08:58:07.534Z,47.08
2018-03-02T09:00:35.668Z,43.30
2018-03-02T09:03:04.571Z,43.05
2018-03-02T09:05:33.497Z,42.25
2018-03-02T09:08:02.362Z,46.45
2018-03-02T09:10:30.539Z,43.53
2018-03-02T09:12:58.672Z,43.72
2018-03-02T09:15:26.827Z,52.90
2018-03-02T09:17:54.964Z,43.08
2018-03-02T09:20:23.083Z,43.58
2018-03-02T09:22:51.323Z,42.08
2018-03-02T09:25:19.489Z,43.42
2018-03-02T09:27:47.603Z,47.83
2018-03-02T09:30:15.736Z,41.50
2018-03-02T09:32:43.874Z,45.25
2018-03-02T09:35:12.764Z,40.95
2018-03-02T09:37:41.643Z,45.58
2018-03-02T09:40:10.563Z,43.78
2018-03-02T09:42:38.720Z,43.85
2018-03-02T09:45:07.713Z,45.00
2018-03-02T09:47:36.605Z,42.72
2018-03-02T09:50:05.479Z,37.47
2018-03-02T09:52:34.393Z,43.53
2018-03-02T09:55:02.549Z,42.95
2018-03-02T09:57:31.459Z,42.83
2018-03-02T09:59:59.612Z,43.30
2018-03-02T10:02:28.518Z,44.53
2018-03-02T10:04:56.793Z,45.28
2018-03-02T10:07:25.684Z,43.90
2018-03-02T10:09:54.607Z,45.35
2018-03-02T10:12:22.785Z,43.63
2018-03-02T10:14:50.973Z,42.53
2018-03-02T10:17:19.219Z,41.88
2018-03-02T10:19:47.375Z,42.42
2018-03-02T10:22:16.157Z,44.00
2018-03-02T10:24:44.312Z,43.40
2018-03-02T10:27:13.203Z,43.80
2018-03-02T10:29:42.141Z,44.10
2018-03-02T10:32:10.282Z,40.78
2018-03-02T10:34:38.475Z,41.88
2018-03-02T10:37:06.631Z,44.88
2018-03-02T10:39:34.748Z,47.55
2018-03-02T10:42:02.865Z,48.00
2018-03-02T10:44:31.864Z,41.85
2018-03-02T10:47:00.051Z,44.63
2018-03-02T10:49:28.296Z,48.40
2018-03-02T10:51:57.197Z,46.20
2018-03-02T10:54:25.328Z,47.15
2018-03-02T10:56:53.538Z,46.97
2018-03-02T10:59:22.434Z,47.65
2018-03-02T11:01:54.421Z,49.78
2018-03-02T11:04:37.414Z,51.05
2018-03-02T11:07:06.300Z,47.53
2018-03-02T11:09:34.430Z,49.13
2018-03-02T11:12:02.561Z,47.58
2018-03-02T11:14:30.741Z,47.03
2018-03-02T11:16:58.870Z,48.58
2018-03-02T11:19:27.044Z,45.35
2018-03-02T11:21:55.276Z,46.55
2018-03-02T11:24:23.386Z,47.38
2018-03-02T11:26:51.505Z,54.00
2018-03-02T11:29:19.656Z,53.70
2018-03-02T11:31:47.836Z,51.83
2018-03-02T11:34:15.990Z,50.65
2018-03-02T11:36:44.867Z,53.42
2018-03-02T11:39:13.020Z,50.83
2018-03-02T11:41:41.239Z,47.83
2018-03-02T11:44:09.420Z,51.15
2018-03-02T11:46:37.528Z,48.90
2018-03-02T11:49:05.644Z,50.92
2018-03-02T11:51:34.544Z,52.33
2018-03-02T11:54:02.734Z,53.75
2018-03-02T11:56:30.853Z,51.88
2018-03-02T11:58:59.012Z,57.03
2018-03-02T12:01:27.861Z,52.75
2018-03-02T12:03:56.036Z,53.33
2018-03-02T12:06:24.153Z,56.75
2018-03-02T12:08:52.379Z,52.22
2018-03-02T12:11:20.547Z,57.25
2018-03-02T12:13:49.539Z,50.97
2018-03-02T12:16:17.652Z,55.33
2018-03-02T12:18:45.769Z,56.75
2018-03-02T12:21:14.663Z,53.38
2018-03-02T12:23:43.552Z,55.83
2018-03-02T12:26:12.484Z,52.97
2018-03-02T12:28:40.640Z,53.35
2018-03-02T12:31:09.547Z,56.05
2018-03-02T12:33:38.521Z,58.45
2018-03-02T12:36:07.419Z,58.50
2018-03-02T12:38:35.539Z,55.12
2018-03-02T12:41:03.663Z,55.72
2018-03-02T12:43:31.795Z,54.25
2018-03-02T12:45:59.927Z,54.45
2018-03-02T12:48:28.053Z,56.08
2018-03-02T12:50:56.934Z,59.13
2018-03-02T12:53:25.843Z,51.33
2018-03-02T12:55:54.011Z,54.63
2018-03-02T12:58:22.875Z,54.65
2018-03-02T13:00:51.032Z,57.05
2018-03-02T13:03:19.250Z,55.05
2018-03-02T13:05:47.409Z,52.13
2018-03-02T13:08:16.302Z,53.65
2018-03-02T13:10:45.233Z,56.67
2018-03-02T13:13:13.349Z,55.15
2018-03-02T13:15:41.554Z,58.15
2018-03-02T13:18:10.461Z,59.40
2018-03-02T13:20:38.567Z,57.92
2018-03-02T13:23:06.833Z,59.65
2018-03-02T13:25:35.015Z,61.88
2018-03-02T13:31:02.459Z,56.80
2018-03-02T13:33:42.554Z,55.47
2018-03-02T13:36:10.836Z,57.17
2018-03-02T13:38:38.875Z,59.00
2018-03-02T13:41:18.819Z,62.35
2018-03-02T13:43:47.073Z,55.53
2018-03-02T13:46:15.194Z,58.00
2018-03-02T13:48:55.252Z,58.60
2018-03-02T13:51:23.391Z,55.65
2018-03-02T13:53:51.503Z,57.17
2018-03-02T13:56:31.682Z,58.35
2018-03-02T13:59:00.703Z,53.83
2018-03-02T14:01:28.800Z,53.42
2018-03-02T14:04:08.691Z,58.20
2018-03-02T14:06:37.599Z,53.45
2018-03-02T14:09:05.719Z,50.75
2018-03-02T14:11:33.886Z,56.45
2018-03-02T14:14:02.011Z,54.63
2018-03-02T14:16:30.196Z,57.35
2018-03-02T14:18:58.310Z,57.28
2018-03-02T14:21:27.243Z,55.78
2018-03-02T14:23:56.940Z,52.72
2018-03-02T14:26:25.849Z,57.33
2018-03-02T14:28:53.987Z,56.70
2018-03-02T14:31:22.931Z,55.00
2018-03-02T14:33:51.030Z,54.15
2018-03-02T14:36:19.462Z,56.00
2018-03-02T14:38:47.590Z,52.70
2018-03-02T14:41:17.208Z,51.92
2018-03-02T14:43:46.113Z,52.33
2018-03-02T14:46:14.274Z,58.60
2018-03-02T14:48:42.384Z,59.45
2018-03-02T14:51:10.503Z,53.25
2018-03-02T14:53:38.660Z,59.30
2018-03-02T14:56:06.892Z,54.33
2018-03-02T14:58:35.054Z,55.95
2018-03-02T15:01:03.167Z,56.97
2018-03-02T15:03:31.316Z,56.15
2018-03-02T15:05:59.484Z,53.20
2018-03-02T15:08:27.623Z,59.15
2018-03-02T15:10:56.540Z,58.42
2018-03-02T15:13:24.674Z,52.38
2018-03-02T15:15:52.880Z,55.97
2018-03-02T15:18:21.764Z,52.62
2018-03-02T15:20:50.678Z,58.50
2018-03-02T15:23:18.847Z,55.35
2018-03-02T15:25:46.992Z,55.58
2018-03-02T15:28:15.876Z,59.65
2018-03-02T15:30:44.766Z,59.83
2018-03-02T15:33:13.700Z,61.65
2018-03-02T15:35:41.819Z,61.22
2018-03-02T15:38:10.700Z,60.38
2018-03-02T15:40:38.824Z,64.90
2018-03-02T15:43:06.999Z,64.50
2018-03-02T15:45:35.116Z,60.55
2018-03-02T15:48:03.248Z,63.08
2018-03-02T15:50:31.368Z,64.00
2018-03-02T15:52:59.479Z,66.43
2018-03-02T15:55:27.621Z,66.03
2018-03-02T15:57:55.732Z,63.28
2018-03-02T16:00:23.898Z,67.00
2018-03-02T16:02:52.070Z,62.17
2018-03-02T16:05:21.062Z,64.43
2018-03-02T16:07:49.988Z,68.65
2018-03-02T16:10:18.128Z,68.22
2018-03-02T16:12:46.296Z,70.00
2018-03-02T16:15:14.435Z,70.60
2018-03-02T16:17:42.644Z,69.00
2018-03-02T16:20:10.766Z,74.20
2018-03-02T16:22:38.984Z,73.68
2018-03-02T16:25:07.159Z,71.60
2018-03-02T16:27:35.311Z,71.07
2018-03-02T16:30:03.444Z,73.07
2018-03-02T16:32:31.572Z,73.30
2018-03-02T16:35:00.464Z,74.45
2018-03-02T16:37:28.620Z,71.50
2018-03-02T16:39:57.507Z,72.75
2018-03-02T16:42:26.423Z,67.97
2018-03-02T16:44:54.591Z,71.85
2018-03-02T16:47:22.756Z,74.57
2018-03-02T16:49:51.635Z,72.37
2018-03-02T16:52:20.552Z,76.62
2018-03-02T16:54:48.691Z,80.12
2018-03-02T16:57:16.859Z,69.15
2018-03-02T16:59:44.984Z,79.18
2018-03-02T17:02:13.123Z,82.40
2018-03-02T17:04:42.040Z,74.00
2018-03-02T17:07:10.179Z,79.87
2018-03-02T17:09:38.303Z,72.80
2018-03-02T17:12:06.431Z,76.50
2018-03-02T17:14:35.375Z,74.50
2018-03-02T17:17:03.610Z,76.53
2018-03-02T17:19:32.613Z,75.57
2018-03-02T17:22:00.793Z,68.93
2018-03-02T17:24:29.037Z,80.47
2018-03-02T17:26:57.936Z,75.97
2018-03-02T17:29:26.843Z,75.65
2018-03-02T17:31:55.019Z,80.65
2018-03-02T17:34:23.185Z,78.95
2018-03-02T17:36:51.680Z,78.45
2018-03-02T17:39:19.687Z,75.50
2018-03-02T17:41:47.832Z,80.00
2018-03-02T17:44:16.201Z,74.75
2018-03-02T17:46:44.483Z,75.32
2018-03-02T17:49:12.677Z,74.22
2018-03-02T17:51:40.843Z,72.40
2018-03-02T17:54:08.951Z,69.68
2018-03-02T17:56:37.976Z,76.22
2018-03-02T17:59:06.147Z,76.95
2018-03-02T18:01:34.289Z,77.97
2018-03-02T18:04:03.225Z,79.40
2018-03-02T18:06:31.537Z,76.45
2018-03-02T18:09:00.368Z,83.05
2018-03-02T18:11:30.575Z,71.47
2018-03-02T18:13:59.477Z,80.53
2018-03-02T18:16:27.617Z,82.10
2018-03-02T18:18:55.771Z,78.78
2018-03-02T18:21:23.919Z,86.07
2018-03-02T18:23:52.261Z,80.70
2018-03-02T18:26:21.576Z,77.62
2018-03-02T18:28:49.710Z,77.72
2018-03-02T18:31:17.827Z,83.18
2018-03-02T18:33:45.949Z,81.12
2018-03-02T18:36:14.078Z,85.82
2018-03-02T18:38:42.235Z,92.40
2018-03-02T18:41:10.411Z,82.97
2018-03-02T18:43:38.525Z,82.85
2018-03-02T18:46:06.658Z,87.60
2018-03-02T18:48:34.832Z,79.43
2018-03-02T18:51:02.952Z,84.72
2018-03-02T18:53:31.238Z,87.60
2018-03-02T18:56:00.262Z,85.72
2018-03-02T18:58:28.438Z,82.50
2018-03-02T19:00:56.648Z,87.30
2018-03-02T19:03:24.946Z,84.70
2018-03-02T19:05:53.024Z,92.18
2018-03-02T19:08:21.160Z,88.03
2018-03-02T19:10:49.274Z,85.82
2018-03-02T19:13:17.396Z,86.32
2018-03-02T19:15:45.549Z,94.55
2018-03-02T19:18:13.688Z,94.68
2018-03-02T19:20:41.851Z,93.30
2018-03-02T19:23:09.968Z,84.30
2018-03-02T19:25:38.106Z,88.00
2018-03-02T19:28:06.265Z,97.82
2018-03-02T19:30:34.389Z,92.00
2018-03-02T19:33:02.501Z,89.43
2018-03-02T19:35:30.671Z,91.20
2018-03-02T19:37:58.848Z,89.20
2018-03-02T19:40:26.982Z,88.87
2018-03-02T19:42:55.144Z,90.20
2018-03-02T19:45:23.658Z,96.07
2018-03-02T19:47:51.767Z,92.70
2018-03-02T19:50:19.890Z,94.60
2018-03-02T19:52:48.007Z,93.05
2018-03-02T19:55:16.160Z,88.62
2018-03-02T19:57:44.391Z,93.15
2018-03-02T20:00:12.528Z,90.53
2018-03-02T20:02:41.566Z,94.97
2018-03-02T20:05:09.683Z,93.05
2018-03-02T20:07:37.826Z,95.47
2018-03-02T20:10:05.967Z,100.20
2018-03-02T20:12:34.880Z,92.90
2018-03-02T20:15:03.047Z,102.15
2018-03-02T20:17:31.208Z,95.20
2018-03-02T20:19:59.327Z,97.43
2018-03-02T20:22:27.441Z,98.22
2018-03-02T20:24:56.355Z,98.90
2018-03-02T20:27:24.496Z,97.28
2018-03-02T20:29:52.683Z,98.28
2018-03-02T20:32:21.672Z,110.43
2018-03-02T20:34:50.555Z,106.93
2018-03-02T20:37:18.669Z,107.37
2018-03-02T20:39:46.826Z,107.10
2018-03-02T20:42:15.013Z,100.47
2018-03-02T20:44:43.150Z,101.18
2018-03-02T20:47:12.041Z,97.70
2018-03-02T20:49:40.962Z,98.70
2018-03-02T20:52:09.075Z,106.60
2018-03-02T20:54:37.215Z,98.87
2018-03-02T20:57:05.343Z,99.53
2018-03-02T20:59:34.243Z,106.00
2018-03-02T21:02:03.135Z,99.60
2018-03-02T21:04:32.015Z,98.00
2018-03-02T21:07:00.919Z,104.95
2018-03-02T21:09:29.073Z,104.80
2018-03-02T21:11:57.961Z,100.03
2018-03-02T21:14:26.895Z,104.07
2018-03-02T21:16:55.019Z,101.90
2018-03-02T21:19:23.164Z,102.95
2018-03-02T21:21:51.288Z,102.90
2018-03-02T21:24:20.183Z,101.25
2018-03-02T21:26:49.079Z,99.90
2018-03-02T21:29:17.238Z,105.40
2018-03-02T21:31:46.123Z,108.37
2018-03-02T21:34:18.977Z,98.32
2018-03-02T21:36:43.787Z,101.15
2018-03-02T21:39:13.756Z,99.97
2018-03-02T21:41:42.007Z,100.68
2018-03-02T21:44:10.139Z,111.35
2018-03-02T21:46:38.399Z,102.85
2018-03-02T21:49:06.571Z,109.32
2018-03-02T21:51:34.693Z,101.53
2018-03-02T21:54:02.884Z,114.72
2018-03-02T21:56:31.024Z,110.53
2018-03-02T21:58:59.943Z,114.43
2018-03-02T22:01:28.104Z,102.72
2018-03-02T22:03:56.222Z,110.20
2018-03-02T22:06:24.911Z,109.25
2018-03-02T22:08:53.035Z,106.22
2018-03-02T22:11:21.164Z,112.93
2018-03-02T22:13:49.318Z,103.07
2018-03-02T22:16:17.439Z,116.40
2018-03-02T22:18:45.578Z,115.55
2018-03-02T22:21:13.694Z,111.68
2018-03-02T22:23:42.572Z,111.60
2018-03-02T22:26:11.577Z,113.35
2018-03-02T22:28:39.704Z,110.28
2018-03-02T22:31:07.924Z,116.57
2018-03-02T22:33:36.068Z,107.00
2018-03-02T22:36:04.185Z,111.32
2018-03-02T22:38:32.348Z,109.93
2018-03-02T22:41:00.468Z,107.30
2018-03-02T22:43:28.591Z,111.72
2018-03-02T22:45:56.750Z,112.37
2018-03-02T22:48:25.675Z,111.60
2018-03-02T22:50:53.826Z,110.18
2018-03-02T22:53:21.952Z,108.65
2018-03-02T22:55:50.167Z,108.95
2018-03-02T22:58:18.327Z,113.82
2018-03-02T23:00:47.232Z,109.97
2018-03-02T23:03:15.412Z,113.20
2018-03-02T23:05:43.524Z,109.80
2018-03-02T23:08:11.652Z,116.43
2018-03-02T23:10:39.827Z,116.53
2018-03-02T23:13:07.947Z,117.20
2018-03-02T23:15:36.068Z,106.35
2018-03-02T23:18:04.244Z,112.72
2018-03-02T23:20:32.439Z,114.65
2018-03-02T23:23:00.607Z,111.32
2018-03-02T23:25:28.728Z,110.35
2018-03-02T23:27:56.910Z,112.62
2018-03-02T23:30:25.108Z,109.65
2018-03-02T23:32:53.243Z,112.90
2018-03-02T23:35:21.459Z,110.82
2018-03-02T23:37:49.600Z,118.20
2018-03-02T23:40:18.499Z,110.53
2018-03-02T23:42:47.385Z,122.03
2018-03-02T23:45:16.275Z,115.80
2018-03-02T23:47:45.187Z,115.82
2018-03-02T23:50:13.326Z,111.97
2018-03-02T23:52:41.543Z,114.60
2018-03-02T23:55:09.675Z,116.53
2018-03-02T23:57:37.807Z,110.45
